KSPS/SPS METAR and TAF weather

Enter ICAO airport designator
Station Type Date Time Source
KSPS METAR 2022/06/28 02:52 UTC NOAA

KSPS 280252Z 07012KT 10SM FEW055 28/18 A3016 RMK AO2 SLP197 T02780178 53011


Station Type Date Time Source
KSPS Decoded METAR 2022/06/28 02:52 UTC NOAA

WICHITA FALLS SHEPPARD AFB, TX, United States (KSPS) 33-59N 98-30W 308M
Jun 27, 2022 - 10:52 PM EDT / 2022.06.28 0252 UTC
Wind: from the ENE (070 degrees) at 14 MPH (12 KT):0
Visibility: 10 mile(s):0
Sky conditions: mostly clear
Temperature: 82.0 F (27.8 C)
Dew Point: 64.0 F (17.8 C)
Relative Humidity: 54%
Pressure (altimeter): 30.16 in. Hg (1021 hPa)
Pressure tendency: 0.03 inches (1.1 hPa) higher than three hours ago
ob: KSPS 280252Z 07012KT 10SM FEW055 28/18 A3016 RMK AO2 SLP197 T02780178 53011
cycle: 3

Station Type Date Time Source
KSPS TAF 2022/06/28 08:39 UTC NOAA

TAF
AMD KSPS 280736Z 2808/2906 07012KT P6SM FEW120 FEW250
FM281000 10006KT P6SM BKN100
TEMPO 2810/2814 VRB15G30KT 4SM -TSRA BKN050CB OVC100
FM281400 09008KT P6SM OVC100
FM281900 08008KT P6SM SCT250
AMD NOT SKED

Example: see airport list